Time;durP1;ratioP1;P1;durP2;ratioP2;P2;SDS_P1;SDS_P2;PMS_P1;PMS_P2;Temp;Humidity;BMP_temperature;BMP_pressure;BME280_temperature;BME280_humidity;BME280_pressure;Samples;Min_cycle;Max_cycle;Signal;HPM_P1;HPM_P2
2022/03/26 00:00:24;;;;;;;41.67;31.30;;;11.30;86.50;;;;;;5082845;28;20189;-81
2022/03/26 00:02:52;;;;;;;46.08;32.20;;;11.20;86.50;;;;;;5085917;28;20211;-81
2022/03/26 00:05:20;;;;;;;43.60;31.40;;;11.20;86.90;;;;;;5079163;28;20217;-81
2022/03/26 00:07:47;;;;;;;47.97;33.10;;;11.20;87.70;;;;;;5077484;28;20693;-81
2022/03/26 00:10:15;;;;;;;43.13;31.23;;;11.20;87.10;;;;;;5076725;28;20197;-81
2022/03/26 00:12:44;;;;;;;42.65;30.63;;;11.20;87.20;;;;;;5077343;28;20209;-81
2022/03/26 00:15:12;;;;;;;46.08;32.08;;;11.20;87.90;;;;;;5072646;28;20221;-81
2022/03/26 00:17:40;;;;;;;45.58;31.50;;;11.10;87.80;;;;;;5075650;28;20205;-81
2022/03/26 00:20:09;;;;;;;47.38;32.63;;;11.10;88.10;;;;;;5072488;28;20198;-81
2022/03/26 00:22:36;;;;;;;43.03;30.08;;;11.00;88.50;;;;;;5080684;28;20557;-81
2022/03/26 00:25:05;;;;;;;44.30;30.08;;;11.00;89.30;;;;;;5075293;28;20224;-81
2022/03/26 00:27:35;;;;;;;44.42;30.75;;;11.00;89.60;;;;;;5072623;28;20207;-81
2022/03/26 00:30:04;;;;;;;44.97;31.67;;;10.90;89.80;;;;;;5072302;28;20212;-81
2022/03/26 00:32:31;;;;;;;45.30;31.87;;;10.70;90.50;;;;;;5085282;28;20202;-81
2022/03/26 00:34:59;;;;;;;46.83;30.67;;;10.60;90.90;;;;;;5075581;28;20229;-81
2022/03/26 00:37:26;;;;;;;40.37;30.30;;;10.60;91.20;;;;;;5093490;28;20208;-81
2022/03/26 00:39:54;;;;;;;50.03;31.47;;;10.60;91.40;;;;;;5077643;28;20201;-81
2022/03/26 00:42:21;;;;;;;46.23;32.10;;;10.50;91.30;;;;;;5078697;28;20570;-81
2022/03/26 00:44:49;;;;;;;44.00;29.40;;;10.50;91.90;;;;;;5087979;28;20211;-81
2022/03/26 00:47:17;;;;;;;45.33;30.57;;;10.80;91.60;;;;;;5091257;28;20212;-81
2022/03/26 00:49:45;;;;;;;43.25;30.23;;;11.00;91.00;;;;;;5088388;28;20208;-81
2022/03/26 00:52:16;;;;;;;50.78;32.10;;;11.00;90.50;;;;;;5079699;28;20201;-81
2022/03/26 00:54:44;;;;;;;46.00;32.38;;;10.90;90.70;;;;;;5092580;28;20204;-81
2022/03/26 00:57:11;;;;;;;43.08;32.17;;;10.70;91.20;;;;;;5089186;28;20197;-81
2022/03/26 00:59:39;;;;;;;46.17;32.40;;;10.60;91.70;;;;;;5082959;28;20197;-81
2022/03/26 01:02:07;;;;;;;44.83;32.17;;;10.50;91.70;;;;;;5080217;28;20205;-81
2022/03/26 01:04:36;;;;;;;46.33;30.50;;;10.00;93.10;;;;;;5083237;28;20201;-81
2022/03/26 01:07:03;;;;;;;43.93;31.07;;;9.90;95.10;;;;;;5082815;28;20221;-79
2022/03/26 01:10:01;;;;;;;49.40;31.07;;;10.00;94.00;;;;;;5080456;28;20674;-79
2022/03/26 01:12:28;;;;;;;46.70;30.07;;;9.90;95.30;;;;;;5076327;28;20214;-79
2022/03/26 01:14:56;;;;;;;41.50;29.70;;;10.10;94.50;;;;;;5090171;28;20215;-79
2022/03/26 01:17:23;;;;;;;43.13;30.93;;;10.60;93.50;;;;;;5075826;28;20204;-79
2022/03/26 01:19:52;;;;;;;45.83;32.67;;;10.50;93.10;;;;;;5078340;28;20204;-79
2022/03/26 01:22:19;;;;;;;43.13;31.63;;;10.50;93.00;;;;;;5077061;28;20212;-79
2022/03/26 01:24:47;;;;;;;45.83;31.57;;;10.50;93.30;;;;;;5079977;28;20202;-79
2022/03/26 01:27:14;;;;;;;44.50;30.57;;;10.90;92.80;;;;;;5086487;28;20271;-79
2022/03/26 01:29:41;;;;;;;47.58;34.33;;;11.10;92.00;;;;;;5081688;28;20666;-79
2022/03/26 01:32:10;;;;;;;48.53;34.35;;;10.80;91.70;;;;;;5077675;28;20208;-79
2022/03/26 01:34:38;;;;;;;45.87;32.27;;;10.60;92.30;;;;;;5084683;28;20193;-79
2022/03/26 01:37:07;;;;;;;51.87;35.50;;;10.40;92.90;;;;;;5084630;28;20208;-79
2022/03/26 01:39:35;;;;;;;45.53;32.07;;;10.10;93.50;;;;;;5087065;28;20201;-79
2022/03/26 01:42:04;;;;;;;43.70;32.10;;;9.90;94.80;;;;;;5078992;28;20208;-79
2022/03/26 01:44:31;;;;;;;48.27;32.80;;;9.70;96.00;;;;;;5086313;28;20220;-79
2022/03/26 01:46:59;;;;;;;44.10;31.43;;;9.70;96.10;;;;;;5086011;28;20220;-80
2022/03/26 01:49:27;;;;;;;42.13;30.23;;;9.30;96.40;;;;;;5085781;28;20205;-79
2022/03/26 01:51:55;;;;;;;47.40;30.97;;;8.90;99.00;;;;;;5084211;28;20666;-79
2022/03/26 01:54:24;;;;;;;45.63;31.37;;;9.10;99.40;;;;;;5084204;28;20197;-79
2022/03/26 01:56:52;;;;;;;44.50;30.63;;;9.20;98.70;;;;;;5086486;28;20223;-79
2022/03/26 01:59:20;;;;;;;46.73;30.67;;;9.40;98.20;;;;;;5085534;28;20200;-79
2022/03/26 02:01:48;;;;;;;45.07;31.33;;;9.30;98.50;;;;;;5077245;28;20205;-80
2022/03/26 02:04:15;;;;;;;43.53;31.33;;;9.40;98.20;;;;;;5082671;28;20208;-79
2022/03/26 02:06:42;;;;;;;45.00;31.13;;;9.50;97.90;;;;;;5081529;28;20232;-79
2022/03/26 02:09:13;;;;;;;45.57;30.60;;;9.50;97.50;;;;;;5081453;28;20786;-79
2022/03/26 02:11:43;;;;;;;43.27;29.23;;;9.60;97.50;;;;;;5083683;28;20207;-79
2022/03/26 02:14:12;;;;;;;41.40;28.87;;;9.60;97.60;;;;;;5089015;28;20196;-79
2022/03/26 02:16:41;;;;;;;42.20;29.17;;;9.70;97.60;;;;;;5082122;28;20229;-79
2022/03/26 02:19:10;;;;;;;42.60;29.47;;;9.70;97.20;;;;;;5083400;28;20197;-79
2022/03/26 02:21:40;;;;;;;44.97;29.80;;;9.80;97.40;;;;;;5084079;28;20205;-79
2022/03/26 02:24:09;;;;;;;46.07;30.60;;;9.70;97.40;;;;;;5086263;28;20205;-79
2022/03/26 02:26:39;;;;;;;45.30;30.90;;;9.60;97.70;;;;;;5081937;28;20226;-79
2022/03/26 02:29:08;;;;;;;42.93;28.90;;;9.60;98.00;;;;;;5081888;28;20208;-79
2022/03/26 02:31:36;;;;;;;44.27;28.70;;;9.60;97.90;;;;;;5084553;28;20198;-79
2022/03/26 02:34:04;;;;;;;45.03;28.43;;;9.70;97.70;;;;;;5087732;28;20197;-80
2022/03/26 02:36:31;;;;;;;44.93;29.00;;;9.70;97.70;;;;;;5093027;28;20213;-80
2022/03/26 02:39:00;;;;;;;43.27;28.93;;;9.70;97.60;;;;;;5090919;28;20189;-80
2022/03/26 02:41:27;;;;;;;44.57;28.07;;;9.70;97.70;;;;;;5080764;28;20197;-80
2022/03/26 02:43:55;;;;;;;41.70;29.03;;;9.60;97.70;;;;;;5079780;28;20531;-80
2022/03/26 02:46:22;;;;;;;42.13;28.97;;;9.70;97.80;;;;;;5084230;28;20602;-80
2022/03/26 02:48:54;;;;;;;41.33;29.83;;;9.70;98.20;;;;;;5083021;28;20228;-80
2022/03/26 02:51:21;;;;;;;41.10;27.73;;;9.80;97.60;;;;;;5087244;28;20204;-80
2022/03/26 02:53:48;;;;;;;43.33;29.40;;;9.90;97.40;;;;;;5081940;28;20570;-80
2022/03/26 02:56:19;;;;;;;39.33;28.33;;;9.60;98.10;;;;;;5084411;28;20718;-80
2022/03/26 02:58:47;;;;;;;41.57;28.83;;;9.60;98.30;;;;;;5079829;28;20193;-79
2022/03/26 03:01:14;;;;;;;41.60;29.20;;;9.60;98.30;;;;;;5085909;28;20197;-79
2022/03/26 03:03:42;;;;;;;40.30;28.83;;;9.60;98.30;;;;;;5082342;28;20196;-79
2022/03/26 03:06:10;;;;;;;43.67;28.43;;;9.50;98.40;;;;;;5086781;28;20225;-79
2022/03/26 03:08:37;;;;;;;41.87;29.37;;;9.50;98.40;;;;;;5089754;28;20582;-79
2022/03/26 03:11:04;;;;;;;42.77;29.37;;;9.50;98.70;;;;;;5090753;28;20193;-79
2022/03/26 03:13:38;;;;;;;43.33;28.77;;;9.50;98.70;;;;;;5086249;28;20206;-79
2022/03/26 03:16:06;;;;;;;42.40;29.20;;;9.50;98.80;;;;;;5083513;28;20220;-79
2022/03/26 03:18:33;;;;;;;41.20;28.90;;;9.50;98.90;;;;;;5086402;28;20193;-79
2022/03/26 03:21:01;;;;;;;40.97;29.07;;;9.40;99.00;;;;;;5090952;28;20196;-79
2022/03/26 03:23:28;;;;;;;39.50;26.90;;;9.40;99.10;;;;;;5084913;28;20208;-79
2022/03/26 03:25:56;;;;;;;47.73;29.63;;;9.30;99.40;;;;;;5079376;28;20216;-80
2022/03/26 03:28:26;;;;;;;42.67;29.17;;;9.30;99.20;;;;;;5078143;28;20218;-79
2022/03/26 03:30:55;;;;;;;43.77;27.70;;;9.30;99.20;;;;;;5097833;28;20205;-79
2022/03/26 03:33:22;;;;;;;39.47;28.13;;;9.20;99.50;;;;;;5082187;28;20200;-79
2022/03/26 03:35:50;;;;;;;42.53;27.70;;;9.00;99.90;;;;;;5087755;28;20223;-79
2022/03/26 03:38:19;;;;;;;44.03;28.83;;;9.00;99.90;;;;;;5081288;28;20193;-79
2022/03/26 03:40:47;;;;;;;41.40;26.50;;;9.10;99.90;;;;;;5080517;28;20185;-79
2022/03/26 03:43:14;;;;;;;41.33;27.53;;;9.20;99.90;;;;;;5084867;28;20562;-79
2022/03/26 03:45:42;;;;;;;41.60;27.53;;;9.20;99.90;;;;;;5086877;28;20221;-79
2022/03/26 03:48:13;;;;;;;38.50;26.10;;;9.20;99.80;;;;;;5080465;28;20757;-79
2022/03/26 03:50:40;;;;;;;39.83;27.97;;;9.20;99.90;;;;;;5082865;28;20201;-79
2022/03/26 03:53:08;;;;;;;42.80;28.17;;;9.20;99.90;;;;;;5085858;28;20197;-79
2022/03/26 03:55:35;;;;;;;39.57;27.67;;;9.20;99.90;;;;;;5081536;28;20217;-79
2022/03/26 03:58:03;;;;;;;42.97;27.47;;;9.10;99.90;;;;;;5079519;28;20197;-79
2022/03/26 04:00:30;;;;;;;36.87;26.30;;;9.10;99.90;;;;;;5084264;28;20205;-79
2022/03/26 04:03:29;;;;;;;39.57;27.60;;;9.20;99.90;;;;;;5080381;28;20204;-79
2022/03/26 04:05:59;;;;;;;39.77;28.13;;;9.20;99.80;;;;;;5075714;28;20208;-79
2022/03/26 04:08:26;;;;;;;38.07;26.27;;;9.10;99.90;;;;;;5076422;28;20221;-79
2022/03/26 04:10:54;;;;;;;37.40;25.97;;;9.10;99.90;;;;;;5086257;28;20203;-79
2022/03/26 04:13:21;;;;;;;36.57;25.80;;;8.90;99.90;;;;;;5089266;28;20693;-79
2022/03/26 04:15:50;;;;;;;37.97;25.93;;;8.60;99.90;;;;;;5081450;28;20223;-79
2022/03/26 04:18:17;;;;;;;41.40;25.83;;;8.70;99.90;;;;;;5087944;28;20208;-78
2022/03/26 04:20:45;;;;;;;36.17;24.50;;;8.70;99.90;;;;;;5089339;28;20204;-80
2022/03/26 04:23:13;;;;;;;34.90;23.67;;;8.60;99.90;;;;;;5084792;28;20686;-79
2022/03/26 04:25:41;;;;;;;40.27;25.97;;;8.50;99.90;;;;;;5085256;28;20205;-79
2022/03/26 04:28:08;;;;;;;37.93;24.23;;;8.50;99.90;;;;;;5085380;28;20205;-79
2022/03/26 04:30:38;;;;;;;34.53;24.93;;;8.40;99.90;;;;;;5087262;28;20198;-79
2022/03/26 04:33:05;;;;;;;38.00;25.77;;;8.30;99.90;;;;;;5092849;28;20226;-79
2022/03/26 04:35:33;;;;;;;36.37;24.17;;;8.10;99.90;;;;;;5088784;28;20209;-79
2022/03/26 04:38:00;;;;;;;38.60;25.10;;;8.20;99.90;;;;;;5086914;28;20197;-79
2022/03/26 04:40:30;;;;;;;38.57;26.03;;;8.20;99.90;;;;;;5089666;28;20561;-79
2022/03/26 04:42:57;;;;;;;38.83;25.70;;;8.20;99.90;;;;;;5090776;28;20189;-79
2022/03/26 04:45:27;;;;;;;37.73;26.00;;;8.20;99.90;;;;;;5086720;28;20233;-79
2022/03/26 04:47:57;;;;;;;36.40;25.03;;;8.10;99.90;;;;;;5092125;28;20180;-79
2022/03/26 04:50:25;;;;;;;34.43;24.37;;;8.00;99.90;;;;;;5089244;28;20209;-79
2022/03/26 04:52:52;;;;;;;36.27;25.87;;;8.10;99.90;;;;;;5089384;28;20677;-79
2022/03/26 04:55:20;;;;;;;36.53;25.50;;;8.30;99.90;;;;;;5074997;28;20221;-79
2022/03/26 04:57:50;;;;;;;42.47;27.27;;;8.30;99.90;;;;;;5081309;28;20208;-79
2022/03/26 05:00:20;;;;;;;37.93;25.73;;;8.30;99.90;;;;;;5082652;28;20217;-78
2022/03/26 05:02:47;;;;;;;44.83;26.80;;;8.20;99.90;;;;;;5079250;28;20201;-79
2022/03/26 05:05:15;;;;;;;36.27;26.27;;;8.20;99.90;;;;;;5075367;28;20229;-78
2022/03/26 05:07:46;;;;;;;37.60;27.23;;;8.20;99.90;;;;;;5081434;28;20205;-78
2022/03/26 05:10:14;;;;;;;38.57;26.87;;;8.10;99.90;;;;;;5074948;28;20221;-79
2022/03/26 05:12:42;;;;;;;39.40;26.40;;;8.00;99.90;;;;;;5077497;28;20205;-78
2022/03/26 05:15:12;;;;;;;34.77;26.40;;;8.00;99.90;;;;;;5083409;28;20221;-78
2022/03/26 05:17:39;;;;;;;39.93;27.03;;;8.10;99.90;;;;;;5072976;28;20208;-78
2022/03/26 05:20:09;;;;;;;41.37;26.97;;;8.40;99.90;;;;;;5073166;28;20201;-78
2022/03/26 05:22:37;;;;;;;41.33;26.70;;;8.30;99.90;;;;;;5075867;28;20197;-78
2022/03/26 05:25:05;;;;;;;40.63;27.90;;;8.20;99.90;;;;;;5084232;28;20209;-78
2022/03/26 05:27:32;;;;;;;40.07;25.63;;;8.10;99.90;;;;;;5073911;28;20204;-78
2022/03/26 05:30:00;;;;;;;38.90;26.47;;;7.90;99.90;;;;;;5086109;28;20220;-77
2022/03/26 05:32:29;;;;;;;41.97;27.27;;;7.70;99.90;;;;;;5072925;28;20204;-78
2022/03/26 05:34:56;;;;;;;40.43;28.30;;;7.60;99.90;;;;;;5075201;28;20213;-78
2022/03/26 05:37:23;;;;;;;40.73;27.50;;;7.50;99.90;;;;;;5084999;28;20205;-78
2022/03/26 05:39:51;;;;;;;38.03;26.53;;;7.30;99.90;;;;;;5078205;28;20568;-78
2022/03/26 05:42:18;;;;;;;38.73;25.43;;;7.00;99.90;;;;;;5073164;28;20197;-77
2022/03/26 05:44:45;;;;;;;39.07;25.80;;;7.30;99.90;;;;;;5069971;28;20212;-78
2022/03/26 05:47:13;;;;;;;34.70;24.17;;;7.40;99.90;;;;;;5071926;28;20201;-79
2022/03/26 05:49:42;;;;;;;35.83;23.97;;;7.40;99.90;;;;;;5080684;28;20221;-78
2022/03/26 05:52:09;;;;;;;35.60;24.23;;;7.60;99.90;;;;;;5088396;28;20675;-77
2022/03/26 05:54:45;;;;;;;36.00;24.80;;;7.60;99.90;;;;;;5088582;28;20193;-78
2022/03/26 05:57:13;;;;;;;37.50;26.30;;;7.70;99.90;;;;;;5072526;28;20220;-78
2022/03/26 05:59:41;;;;;;;39.93;25.10;;;7.60;99.90;;;;;;5088000;28;20193;-77
2022/03/26 06:02:10;;;;;;;36.10;24.33;;;7.70;99.90;;;;;;5089893;28;20224;-78
2022/03/26 06:04:38;;;;;;;36.23;24.07;;;7.80;99.90;;;;;;5077286;28;20212;-78
2022/03/26 06:07:07;;;;;;;35.40;24.20;;;7.70;99.90;;;;;;5086738;28;20220;-78
2022/03/26 06:09:34;;;;;;;38.03;26.00;;;7.90;99.90;;;;;;5085341;28;20224;-77
2022/03/26 06:12:02;;;;;;;44.43;28.20;;;7.80;99.90;;;;;;5076427;28;20205;-78
2022/03/26 06:14:29;;;;;;;37.37;26.83;;;7.80;99.90;;;;;;5071783;28;20202;-78
2022/03/26 06:16:57;;;;;;;37.50;27.50;;;7.90;99.90;;;;;;5074710;28;20220;-77
2022/03/26 06:19:26;;;;;;;37.93;27.77;;;8.00;99.90;;;;;;5080044;28;20219;-78
2022/03/26 06:21:53;;;;;;;37.93;27.13;;;8.10;99.90;;;;;;5079843;28;20197;-78
2022/03/26 06:24:22;;;;;;;40.40;26.17;;;8.20;99.90;;;;;;5087865;28;20193;-78
2022/03/26 06:26:50;;;;;;;38.80;26.67;;;8.10;99.90;;;;;;5080552;28;20602;-79
2022/03/26 06:29:17;;;;;;;36.20;25.73;;;8.30;99.90;;;;;;5089725;28;20558;-78
2022/03/26 06:31:45;;;;;;;38.50;25.47;;;8.30;99.90;;;;;;5088998;28;20681;-77
2022/03/26 06:34:12;;;;;;;43.50;28.83;;;8.40;99.90;;;;;;5088011;28;20200;-78
2022/03/26 06:36:40;;;;;;;43.23;27.77;;;8.50;99.90;;;;;;5087722;28;20726;-79
2022/03/26 06:39:09;;;;;;;39.40;26.47;;;8.60;99.90;;;;;;5082158;28;20210;-78
2022/03/26 06:41:39;;;;;;;40.43;28.03;;;8.70;99.90;;;;;;5074004;28;20196;-78
2022/03/26 06:44:08;;;;;;;37.30;26.47;;;8.80;99.90;;;;;;5076222;28;20193;-77
2022/03/26 06:46:37;;;;;;;41.83;26.93;;;8.90;99.90;;;;;;5075061;28;20220;-79
2022/03/26 06:49:06;;;;;;;40.13;26.47;;;8.80;99.90;;;;;;5069061;28;20201;-78
2022/03/26 06:51:34;;;;;;;41.03;28.23;;;9.00;99.90;;;;;;5082936;28;20224;-77
2022/03/26 06:54:01;;;;;;;42.57;29.53;;;9.10;99.90;;;;;;5073857;28;20190;-78
2022/03/26 06:56:29;;;;;;;37.80;27.73;;;9.10;99.90;;;;;;5083473;28;20221;-79
2022/03/26 06:58:58;;;;;;;40.73;27.10;;;9.30;99.90;;;;;;5082455;28;20208;-78
2022/03/26 07:01:25;;;;;;;37.60;26.60;;;9.40;99.90;;;;;;5080102;28;20204;-78
2022/03/26 07:03:58;;;;;;;39.20;26.60;;;9.60;99.90;;;;;;5078644;28;20200;-78
2022/03/26 07:06:26;;;;;;;42.23;28.33;;;9.70;99.90;;;;;;5082543;28;20216;-78
2022/03/26 07:09:00;;;;;;;38.63;27.07;;;9.70;99.90;;;;;;5075281;28;20201;-79
2022/03/26 07:11:40;;;;;;;43.77;30.20;;;9.80;99.90;;;;;;5074336;28;20574;-77
2022/03/26 07:14:20;;;;;;;44.40;28.93;;;10.00;99.90;;;;;;5082191;28;20197;-78
2022/03/26 07:17:04;;;;;;;42.17;28.73;;;10.00;99.90;;;;;;5093382;28;20217;-78
2022/03/26 07:19:51;;;;;;;;;;;;;;;;;;;;;
2022/03/26 07:22:26;;;;;;;41.10;28.90;;;10.30;99.90;;;;;;5084481;28;20201;-78
2022/03/26 07:27:57;;;;;;;39.53;27.93;;;10.50;99.90;;;;;;5069408;28;20559;-77
2022/03/26 07:30:43;;;;;;;37.42;28.00;;;10.70;99.40;;;;;;5089413;28;20205;-78
2022/03/26 07:33:21;;;;;;;39.77;27.50;;;10.90;98.70;;;;;;5082539;28;20204;-79
2022/03/26 07:36:03;;;;;;;40.43;28.70;;;11.10;98.00;;;;;;5083559;28;20216;-79
2022/03/26 07:38:36;;;;;;;39.03;27.93;;;11.30;97.50;;;;;;5088277;28;20223;-80
2022/03/26 07:41:12;;;;;;;38.27;28.13;;;11.30;97.60;;;;;;5080085;28;20202;-80
2022/03/26 07:43:54;;;;;;;40.72;28.48;;;11.30;97.50;;;;;;5075397;28;20200;-80
2022/03/26 07:46:34;;;;;;;39.10;26.92;;;11.30;97.50;;;;;;5081257;28;20221;-78
2022/03/26 07:49:11;;;;;;;40.80;29.23;;;11.20;97.50;;;;;;5084253;28;20193;-79
2022/03/26 07:51:49;;;;;;;41.17;28.75;;;11.40;97.10;;;;;;5087138;28;20208;-79
2022/03/26 07:54:27;;;;;;;37.47;27.00;;;11.50;97.10;;;;;;5093867;28;20194;-78
2022/03/26 07:57:34;;;;;;;39.00;28.10;;;11.60;96.80;;;;;;5081731;28;20216;-79
2022/03/26 08:00:19;;;;;;;40.83;29.80;;;11.70;96.60;;;;;;5082944;28;20200;-76
2022/03/26 08:02:57;;;;;;;39.03;28.30;;;11.70;96.40;;;;;;5089967;28;20197;-79
2022/03/26 08:05:39;;;;;;;38.50;28.13;;;11.80;96.80;;;;;;5081044;28;20217;-79
2022/03/26 08:08:16;;;;;;;40.08;29.17;;;11.90;96.80;;;;;;5082367;28;20197;-77
2022/03/26 08:11:17;;;;;;;43.58;28.50;;;11.90;96.90;;;;;;5079421;28;20574;-78
2022/03/26 08:13:54;;;;;;;38.17;27.17;;;12.10;96.30;;;;;;5088775;28;20188;-78
2022/03/26 08:16:31;;;;;;;44.15;29.00;;;12.20;95.80;;;;;;5089778;28;20718;-79
2022/03/26 08:22:05;;;;;;;39.30;28.63;;;12.60;95.00;;;;;;5089115;28;20275;-79
2022/03/26 08:24:44;;;;;;;37.45;27.83;;;12.60;94.90;;;;;;5080052;28;20201;-79
2022/03/26 08:27:38;;;;;;;39.13;27.90;;;12.70;94.80;;;;;;5097550;28;20246;-79
2022/03/26 08:30:19;;;;;;;40.28;28.35;;;12.70;94.70;;;;;;5097138;28;20200;-79
2022/03/26 08:32:56;;;;;;;39.70;27.52;;;12.80;94.60;;;;;;5082059;28;20212;-79
2022/03/26 08:35:27;;;;;;;38.08;27.15;;;12.90;94.40;;;;;;5095227;28;20242;-77
2022/03/26 08:38:01;;;;;;;40.58;28.10;;;13.10;94.30;;;;;;5087649;28;20196;-79
2022/03/26 08:40:34;;;;;;;39.10;28.00;;;13.10;94.10;;;;;;5086551;28;20201;-81
2022/03/26 08:43:08;;;;;;;35.20;27.02;;;13.10;94.30;;;;;;5087474;28;20193;-79
2022/03/26 08:45:47;;;;;;;40.90;28.75;;;13.20;94.60;;;;;;5097607;28;20212;-80
2022/03/26 08:48:22;;;;;;;40.63;28.05;;;13.20;94.50;;;;;;5096743;28;20196;-81
2022/03/26 08:51:01;;;;;;;39.72;28.23;;;13.20;94.30;;;;;;5096598;28;20205;-81
2022/03/26 08:53:33;;;;;;;38.28;27.67;;;13.30;94.50;;;;;;5097130;28;20189;-80
2022/03/26 08:56:09;;;;;;;36.70;27.48;;;13.50;94.30;;;;;;5089885;28;20726;-80
2022/03/26 08:58:49;;;;;;;38.30;26.80;;;13.50;93.70;;;;;;5094185;28;20184;-81
2022/03/26 09:01:22;;;;;;;40.72;26.67;;;13.70;93.50;;;;;;5093730;28;20194;-80
2022/03/26 09:04:01;;;;;;;35.03;26.98;;;13.70;93.30;;;;;;5077354;28;20200;-81
2022/03/26 09:06:53;;;;;;;36.97;27.90;;;13.60;93.60;;;;;;5077202;28;20216;-80
2022/03/26 09:09:41;;;;;;;39.80;27.23;;;13.80;93.60;;;;;;5094876;28;20197;-80
2022/03/26 09:12:14;;;;;;;40.42;27.52;;;13.80;93.90;;;;;;5096642;28;20227;-80
2022/03/26 09:14:59;;;;;;;34.95;25.90;;;14.00;93.30;;;;;;5088342;28;20196;-80
2022/03/26 09:17:46;;;;;;;41.08;26.92;;;13.90;93.40;;;;;;5094449;28;20200;-80
2022/03/26 09:20:31;;;;;;;35.92;26.05;;;14.00;93.30;;;;;;5098308;28;20181;-80
2022/03/26 09:23:09;;;;;;;35.47;25.52;;;14.10;93.60;;;;;;5095513;28;20201;-80
2022/03/26 09:25:52;;;;;;;39.90;27.58;;;14.30;93.00;;;;;;5077733;28;20209;-80
2022/03/26 09:28:39;;;;;;;35.45;26.27;;;14.30;92.30;;;;;;5091471;28;20201;-80
2022/03/26 09:31:09;;;;;;;36.75;26.95;;;14.40;92.10;;;;;;5099331;28;20205;-80
2022/03/26 09:33:42;;;;;;;38.08;25.70;;;14.40;92.00;;;;;;5093041;28;20204;-80
2022/03/26 09:36:19;;;;;;;35.45;25.88;;;14.60;91.40;;;;;;5094689;28;20212;-79
2022/03/26 09:39:00;;;;;;;33.33;24.85;;;14.60;91.60;;;;;;5089253;28;20180;-79
2022/03/26 09:41:35;;;;;;;32.67;25.13;;;14.60;91.00;;;;;;5095809;28;20192;-80
2022/03/26 09:44:19;;;;;;;33.75;27.10;;;14.60;90.90;;;;;;5088801;28;20193;-79
2022/03/26 09:46:50;;;;;;;34.30;25.00;;;14.80;91.20;;;;;;5097496;28;20223;-78
2022/03/26 09:49:23;;;;;;;30.45;22.92;;;14.90;91.60;;;;;;5096512;28;20197;-79
2022/03/26 09:51:59;;;;;;;33.83;23.98;;;14.90;90.80;;;;;;5094547;28;20220;-78
2022/03/26 09:54:28;;;;;;;29.27;22.10;;;15.00;90.70;;;;;;5086748;28;20208;-77
2022/03/26 09:56:56;;;;;;;33.53;23.30;;;15.00;90.90;;;;;;5081759;28;20224;-78
2022/03/26 09:59:24;;;;;;;28.77;21.02;;;15.00;90.60;;;;;;5090123;28;20650;-78
2022/03/26 10:01:52;;;;;;;31.90;20.90;;;15.20;89.00;;;;;;5085522;28;20197;-78
2022/03/26 10:04:21;;;;;;;29.15;20.83;;;15.40;88.30;;;;;;5073945;28;20204;-78
2022/03/26 10:06:50;;;;;;;25.10;19.77;;;15.50;88.30;;;;;;5076411;28;20218;-76
2022/03/26 10:09:39;;;;;;;23.58;18.65;;;15.60;87.10;;;;;;5082984;28;20208;-77
2022/03/26 10:12:09;;;;;;;25.10;18.42;;;15.70;87.00;;;;;;5091651;28;20221;-76
2022/03/26 10:14:42;;;;;;;25.80;18.13;;;15.70;86.40;;;;;;5077558;28;20189;-76
2022/03/26 10:17:17;;;;;;;24.05;16.92;;;15.90;85.30;;;;;;5085473;28;20721;-76
2022/03/26 10:19:48;;;;;;;24.13;15.77;;;16.10;85.10;;;;;;5076321;28;20205;-76
2022/03/26 10:22:27;;;;;;;22.92;14.98;;;16.20;85.70;;;;;;5088422;28;20280;-76
2022/03/26 10:24:56;;;;;;;19.17;13.95;;;16.10;86.00;;;;;;5071394;28;20216;-76
2022/03/26 10:27:24;;;;;;;19.48;14.60;;;16.30;83.00;;;;;;5072202;28;20213;-77
2022/03/26 10:29:53;;;;;;;18.92;15.05;;;16.30;81.80;;;;;;5071981;28;20205;-77
2022/03/26 10:32:39;;;;;;;20.67;15.63;;;16.40;81.90;;;;;;5075366;28;20213;-75
2022/03/26 10:35:18;;;;;;;19.17;14.10;;;16.40;84.60;;;;;;5070751;28;20231;-76
2022/03/26 10:37:53;;;;;;;16.80;14.25;;;16.50;86.20;;;;;;5068023;28;20792;-76
2022/03/26 10:40:26;;;;;;;17.75;14.70;;;16.50;84.70;;;;;;5067732;28;20208;-76
2022/03/26 10:43:08;;;;;;;17.77;14.27;;;16.70;83.80;;;;;;5067935;28;20206;-76
2022/03/26 10:45:38;;;;;;;16.20;13.00;;;16.70;83.30;;;;;;5067354;28;20225;-77
2022/03/26 10:48:10;;;;;;;16.80;13.02;;;16.70;82.90;;;;;;5072733;28;20211;-76
2022/03/26 10:50:40;;;;;;;14.68;11.88;;;16.70;82.20;;;;;;5072343;28;20197;-75
2022/03/26 10:53:10;;;;;;;20.40;13.52;;;16.80;82.80;;;;;;5073171;28;20224;-77
2022/03/26 10:55:40;;;;;;;17.70;13.20;;;16.90;81.20;;;;;;5072350;28;20244;-76
2022/03/26 10:58:08;;;;;;;17.23;13.15;;;17.00;80.90;;;;;;5073875;28;20679;-78
2022/03/26 11:00:36;;;;;;;17.38;11.30;;;17.00;79.30;;;;;;5076736;28;20210;-76
2022/03/26 11:03:05;;;;;;;15.68;11.80;;;17.10;78.90;;;;;;5072399;28;20206;-76
2022/03/26 11:05:34;;;;;;;19.67;14.60;;;17.40;80.60;;;;;;5071417;28;20217;-77
2022/03/26 11:08:02;;;;;;;17.98;13.07;;;17.30;81.10;;;;;;5076134;28;20534;-76
2022/03/26 11:10:35;;;;;;;18.70;12.85;;;17.50;78.90;;;;;;5079511;28;20646;-77
2022/03/26 11:13:05;;;;;;;14.23;12.05;;;17.30;80.00;;;;;;5078461;28;20224;-75
2022/03/26 11:15:38;;;;;;;15.25;10.18;;;17.50;80.90;;;;;;5082677;28;20218;-77
2022/03/26 11:18:25;;;;;;;19.58;11.10;;;17.60;76.70;;;;;;5077425;28;20201;-76
2022/03/26 11:21:14;;;;;;;13.45;9.57;;;18.00;76.00;;;;;;5083006;28;20204;-77
2022/03/26 11:23:58;;;;;;;13.48;9.68;;;18.00;73.90;;;;;;5081354;28;20198;-77
2022/03/26 11:26:39;;;;;;;13.00;10.02;;;18.20;73.20;;;;;;5079321;28;20218;-76
2022/03/26 11:29:24;;;;;;;11.52;8.52;;;18.20;71.30;;;;;;5076961;28;20571;-76
2022/03/26 11:31:58;;;;;;;8.77;6.85;;;18.20;70.60;;;;;;5079981;28;20220;-77
2022/03/26 11:34:25;;;;;;;12.55;8.13;;;18.20;68.00;;;;;;5070470;28;20201;-77
2022/03/26 11:36:53;;;;;;;10.48;8.98;;;18.20;68.20;;;;;;5073790;28;20223;-77
2022/03/26 11:39:22;;;;;;;10.68;8.70;;;18.30;67.80;;;;;;5074382;28;20212;-77
2022/03/26 11:41:49;;;;;;;11.65;8.13;;;18.40;68.00;;;;;;5079269;28;20216;-79
2022/03/26 11:44:23;;;;;;;10.48;8.05;;;18.50;66.90;;;;;;5083678;28;20208;-77
2022/03/26 11:52:25;;;;;;;9.43;8.50;;;18.30;69.10;;;;;;5090440;28;20185;-76
2022/03/26 11:54:59;;;;;;;12.43;8.85;;;18.80;67.20;;;;;;5086163;28;20197;-76
2022/03/26 11:57:28;;;;;;;14.50;10.73;;;19.20;67.50;;;;;;5066832;28;20211;-76
2022/03/26 12:00:00;;;;;;;12.30;9.63;;;19.10;64.80;;;;;;5070043;28;20204;-79
2022/03/26 12:02:35;;;;;;;11.30;10.00;;;19.10;65.20;;;;;;5075244;28;20228;-80
2022/03/26 12:07:48;;;;;;;14.05;10.13;;;19.60;65.40;;;;;;5067274;28;20201;-80
2022/03/26 12:10:19;;;;;;;12.75;10.38;;;19.80;65.20;;;;;;5088869;28;20216;-80
2022/03/26 12:12:52;;;;;;;14.15;10.27;;;19.60;63.80;;;;;;5085735;28;20225;-80
2022/03/26 12:15:27;;;;;;;14.50;9.82;;;19.40;65.50;;;;;;5079251;28;20205;-79
2022/03/26 12:18:07;;;;;;;13.57;10.98;;;19.50;62.40;;;;;;5082901;28;20201;-80
2022/03/26 12:20:37;;;;;;;14.13;9.93;;;19.60;62.70;;;;;;5080100;28;20196;-80
2022/03/26 12:23:07;;;;;;;13.45;10.30;;;19.50;62.30;;;;;;5088227;28;20683;-80
2022/03/26 12:25:37;;;;;;;11.75;10.10;;;19.50;61.90;;;;;;5087193;28;20229;-80
2022/03/26 12:28:06;;;;;;;12.63;10.50;;;19.60;61.50;;;;;;5074460;28;20212;-79
2022/03/26 12:30:34;;;;;;;12.90;10.98;;;19.50;61.30;;;;;;5091058;28;20527;-79
2022/03/26 12:33:07;;;;;;;11.65;9.43;;;19.50;60.80;;;;;;5094094;28;20602;-80
2022/03/26 12:35:34;;;;;;;13.65;10.65;;;20.00;60.70;;;;;;5090988;28;20224;-80
2022/03/26 12:38:04;;;;;;;11.95;10.05;;;19.90;61.20;;;;;;5075576;28;20197;-80
2022/03/26 12:40:33;;;;;;;15.30;10.88;;;20.00;61.50;;;;;;5073212;28;20213;-80
2022/03/26 12:43:03;;;;;;;12.52;10.27;;;20.20;60.80;;;;;;5085137;28;20197;-79
2022/03/26 12:45:35;;;;;;;11.93;9.23;;;20.70;60.80;;;;;;5094186;28;20694;-79
2022/03/26 12:48:08;;;;;;;11.45;9.27;;;21.10;59.10;;;;;;5091277;28;20224;-80
2022/03/26 12:50:38;;;;;;;11.32;9.30;;;20.60;57.90;;;;;;5089558;28;20201;-80
2022/03/26 12:53:09;;;;;;;7.47;6.40;;;20.80;58.00;;;;;;5088091;28;20213;-80
2022/03/26 12:55:37;;;;;;;8.35;7.15;;;20.40;57.20;;;;;;5091670;28;20827;-80
2022/03/26 13:01:03;;;;;;;8.23;6.70;;;20.70;56.90;;;;;;5089433;28;20200;-80
2022/03/26 13:03:31;;;;;;;6.72;6.05;;;21.30;57.40;;;;;;5073953;28;20546;-80
2022/03/26 13:06:01;;;;;;;7.63;6.18;;;22.80;54.80;;;;;;5078192;28;20218;-82
2022/03/26 13:08:29;;;;;;;7.50;6.70;;;22.30;52.00;;;;;;5071544;28;20244;-79
2022/03/26 13:10:56;;;;;;;8.80;7.80;;;22.00;52.20;;;;;;5080502;28;20197;-80